sensor_id;sensor_type;location;lat;lon;timestamp;pressure;altitude;pressure_sealevel;temperature;humidity
19884;BME280;10104;50.732;10.174;2023-10-31T00:01:21;96043.88;;;12.48;100.00
19884;BME280;10104;50.732;10.174;2023-10-31T00:04:01;96033.25;;;12.48;100.00
19884;BME280;10104;50.732;10.174;2023-10-31T00:06:41;96037.69;;;12.42;100.00
19884;BME280;10104;50.732;10.174;2023-10-31T00:09:22;96045.84;;;12.36;100.00
19884;BME280;10104;50.732;10.174;2023-10-31T00:12:02;96043.63;;;12.28;100.00
19884;BME280;10104;50.732;10.174;2023-10-31T00:14:42;96034.75;;;12.22;100.00
19884;BME280;10104;50.732;10.174;2023-10-31T00:17:22;96033.19;;;12.21;100.00
19884;BME280;10104;50.732;10.174;2023-10-31T00:20:03;96041.84;;;12.16;100.00
19884;BME280;10104;50.732;10.174;2023-10-31T00:22:43;96039.34;;;12.10;100.00
19884;BME280;10104;50.732;10.174;2023-10-31T00:25:23;96039.63;;;12.08;100.00
19884;BME280;10104;50.732;10.174;2023-10-31T00:28:03;96032.78;;;12.12;100.00
19884;BME280;10104;50.732;10.174;2023-10-31T00:30:43;96024.59;;;12.14;100.00
19884;BME280;10104;50.732;10.174;2023-10-31T00:33:23;96029.88;;;12.14;100.00
19884;BME280;10104;50.732;10.174;2023-10-31T00:36:04;96031.16;;;12.11;100.00
19884;BME280;10104;50.732;10.174;2023-10-31T00:38:44;96025.84;;;12.11;100.00
19884;BME280;10104;50.732;10.174;2023-10-31T00:41:24;96033.81;;;12.11;100.00
19884;BME280;10104;50.732;10.174;2023-10-31T00:44:05;96035.44;;;12.12;100.00
19884;BME280;10104;50.732;10.174;2023-10-31T00:46:45;96032.63;;;12.02;100.00
19884;BME280;10104;50.732;10.174;2023-10-31T00:49:25;96029.81;;;12.09;100.00
19884;BME280;10104;50.732;10.174;2023-10-31T00:52:06;96029.72;;;12.04;100.00
19884;BME280;10104;50.732;10.174;2023-10-31T00:54:46;96031.03;;;12.01;100.00
19884;BME280;10104;50.732;10.174;2023-10-31T00:57:26;96027.50;;;11.96;100.00
19884;BME280;10104;50.732;10.174;2023-10-31T01:00:07;96020.88;;;11.98;100.00
19884;BME280;10104;50.732;10.174;2023-10-31T01:02:48;96020.34;;;11.96;100.00
19884;BME280;10104;50.732;10.174;2023-10-31T01:05:28;96025.88;;;11.95;100.00
19884;BME280;10104;50.732;10.174;2023-10-31T01:08:10;96025.38;;;11.98;100.00
19884;BME280;10104;50.732;10.174;2023-10-31T01:10:50;96021.22;;;12.02;100.00
19884;BME280;10104;50.732;10.174;2023-10-31T01:13:30;96014.06;;;12.02;100.00
19884;BME280;10104;50.732;10.174;2023-10-31T01:16:11;96023.66;;;12.03;100.00
19884;BME280;10104;50.732;10.174;2023-10-31T01:18:52;96022.03;;;12.02;100.00
19884;BME280;10104;50.732;10.174;2023-10-31T01:21:32;96021.53;;;12.05;100.00
19884;BME280;10104;50.732;10.174;2023-10-31T01:24:12;96011.97;;;12.04;100.00
19884;BME280;10104;50.732;10.174;2023-10-31T01:26:52;96011.16;;;12.04;100.00
19884;BME280;10104;50.732;10.174;2023-10-31T01:29:33;96015.91;;;12.02;100.00
19884;BME280;10104;50.732;10.174;2023-10-31T01:32:13;96015.69;;;12.03;100.00
19884;BME280;10104;50.732;10.174;2023-10-31T01:35:02;96013.81;;;12.04;100.00
19884;BME280;10104;50.732;10.174;2023-10-31T01:37:43;96010.19;;;12.10;100.00
19884;BME280;10104;50.732;10.174;2023-10-31T01:40:24;96022.66;;;12.09;100.00
19884;BME280;10104;50.732;10.174;2023-10-31T01:43:04;96001.13;;;12.06;100.00
19884;BME280;10104;50.732;10.174;2023-10-31T01:45:44;95998.28;;;12.12;100.00
19884;BME280;10104;50.732;10.174;2023-10-31T01:48:25;96000.63;;;12.09;100.00
19884;BME280;10104;50.732;10.174;2023-10-31T01:51:08;96003.75;;;12.06;100.00
19884;BME280;10104;50.732;10.174;2023-10-31T01:53:49;96017.03;;;12.06;100.00
19884;BME280;10104;50.732;10.174;2023-10-31T01:56:29;96017.19;;;11.99;100.00
19884;BME280;10104;50.732;10.174;2023-10-31T01:59:10;96019.94;;;11.88;100.00
19884;BME280;10104;50.732;10.174;2023-10-31T02:01:51;96021.56;;;11.89;100.00
19884;BME280;10104;50.732;10.174;2023-10-31T02:04:31;96039.88;;;11.73;100.00
19884;BME280;10104;50.732;10.174;2023-10-31T02:07:11;96033.09;;;11.66;100.00
19884;BME280;10104;50.732;10.174;2023-10-31T02:09:51;96040.63;;;11.57;100.00
19884;BME280;10104;50.732;10.174;2023-10-31T02:12:36;96039.59;;;11.58;100.00
19884;BME280;10104;50.732;10.174;2023-10-31T02:15:16;96040.06;;;11.55;100.00
19884;BME280;10104;50.732;10.174;2023-10-31T02:17:56;96035.91;;;11.59;100.00
19884;BME280;10104;50.732;10.174;2023-10-31T02:20:37;96032.91;;;11.56;100.00
19884;BME280;10104;50.732;10.174;2023-10-31T02:23:17;96031.66;;;11.58;100.00
19884;BME280;10104;50.732;10.174;2023-10-31T02:25:57;96031.97;;;11.62;100.00
19884;BME280;10104;50.732;10.174;2023-10-31T02:28:37;96025.84;;;11.61;100.00
19884;BME280;10104;50.732;10.174;2023-10-31T02:31:18;96017.00;;;11.56;100.00
19884;BME280;10104;50.732;10.174;2023-10-31T02:33:58;96005.38;;;11.57;100.00
19884;BME280;10104;50.732;10.174;2023-10-31T02:36:38;96014.59;;;11.54;100.00
19884;BME280;10104;50.732;10.174;2023-10-31T02:39:18;96028.19;;;11.58;100.00
19884;BME280;10104;50.732;10.174;2023-10-31T02:41:58;96018.78;;;11.50;100.00
19884;BME280;10104;50.732;10.174;2023-10-31T02:44:39;96023.84;;;11.52;100.00
19884;BME280;10104;50.732;10.174;2023-10-31T02:47:19;96039.66;;;11.47;100.00
19884;BME280;10104;50.732;10.174;2023-10-31T02:49:59;96027.69;;;11.44;100.00
19884;BME280;10104;50.732;10.174;2023-10-31T02:52:39;96033.00;;;11.44;100.00
19884;BME280;10104;50.732;10.174;2023-10-31T02:55:19;96045.84;;;11.35;100.00
19884;BME280;10104;50.732;10.174;2023-10-31T02:58:00;96056.75;;;11.39;100.00
19884;BME280;10104;50.732;10.174;2023-10-31T03:00:40;96070.47;;;11.36;100.00
19884;BME280;10104;50.732;10.174;2023-10-31T03:03:20;96082.28;;;11.28;100.00
19884;BME280;10104;50.732;10.174;2023-10-31T03:06:00;96080.44;;;11.29;100.00
19884;BME280;10104;50.732;10.174;2023-10-31T03:08:41;96092.88;;;11.28;100.00
19884;BME280;10104;50.732;10.174;2023-10-31T03:11:23;96108.41;;;11.25;100.00
19884;BME280;10104;50.732;10.174;2023-10-31T03:14:03;96113.16;;;11.23;100.00
19884;BME280;10104;50.732;10.174;2023-10-31T03:16:44;96104.63;;;11.21;100.00
19884;BME280;10104;50.732;10.174;2023-10-31T03:19:24;96143.69;;;11.14;100.00
19884;BME280;10104;50.732;10.174;2023-10-31T03:22:04;96136.22;;;11.11;100.00
19884;BME280;10104;50.732;10.174;2023-10-31T03:24:46;96124.72;;;11.05;100.00
19884;BME280;10104;50.732;10.174;2023-10-31T03:27:26;96137.94;;;11.05;100.00
19884;BME280;10104;50.732;10.174;2023-10-31T03:30:07;96134.41;;;11.00;100.00
19884;BME280;10104;50.732;10.174;2023-10-31T03:32:47;96139.25;;;11.03;100.00
19884;BME280;10104;50.732;10.174;2023-10-31T03:35:27;96136.69;;;11.08;100.00
19884;BME280;10104;50.732;10.174;2023-10-31T03:38:08;96144.31;;;11.04;100.00
19884;BME280;10104;50.732;10.174;2023-10-31T03:40:49;96139.13;;;10.98;100.00
19884;BME280;10104;50.732;10.174;2023-10-31T03:43:28;96150.88;;;11.02;100.00
19884;BME280;10104;50.732;10.174;2023-10-31T03:46:09;96154.13;;;10.92;100.00
19884;BME280;10104;50.732;10.174;2023-10-31T03:48:49;96159.88;;;10.89;100.00
19884;BME280;10104;50.732;10.174;2023-10-31T03:51:29;96164.69;;;10.80;100.00
19884;BME280;10104;50.732;10.174;2023-10-31T03:54:09;96173.00;;;10.72;100.00
19884;BME280;10104;50.732;10.174;2023-10-31T03:56:50;96164.84;;;10.74;100.00
19884;BME280;10104;50.732;10.174;2023-10-31T03:59:30;96153.31;;;10.57;100.00
19884;BME280;10104;50.732;10.174;2023-10-31T04:02:11;96167.94;;;10.47;100.00
19884;BME280;10104;50.732;10.174;2023-10-31T04:04:51;96169.78;;;10.47;100.00
19884;BME280;10104;50.732;10.174;2023-10-31T04:07:31;96170.94;;;10.39;100.00
19884;BME280;10104;50.732;10.174;2023-10-31T04:10:12;96184.97;;;10.40;100.00
19884;BME280;10104;50.732;10.174;2023-10-31T04:12:52;96186.09;;;10.44;100.00
19884;BME280;10104;50.732;10.174;2023-10-31T04:15:32;96192.69;;;10.41;100.00
19884;BME280;10104;50.732;10.174;2023-10-31T04:18:15;96191.28;;;10.39;100.00
19884;BME280;10104;50.732;10.174;2023-10-31T04:20:56;96196.69;;;10.44;100.00
19884;BME280;10104;50.732;10.174;2023-10-31T04:23:36;96192.78;;;10.46;100.00
19884;BME280;10104;50.732;10.174;2023-10-31T04:26:19;96184.38;;;10.49;100.00
19884;BME280;10104;50.732;10.174;2023-10-31T04:28:59;96183.13;;;10.52;100.00
19884;BME280;10104;50.732;10.174;2023-10-31T04:31:39;96188.91;;;10.49;100.00
19884;BME280;10104;50.732;10.174;2023-10-31T04:34:23;96196.03;;;10.48;100.00
19884;BME280;10104;50.732;10.174;2023-10-31T04:37:04;96192.78;;;10.46;100.00
19884;BME280;10104;50.732;10.174;2023-10-31T04:39:44;96191.75;;;10.47;100.00
19884;BME280;10104;50.732;10.174;2023-10-31T04:42:24;96187.03;;;10.38;100.00
19884;BME280;10104;50.732;10.174;2023-10-31T04:45:05;96195.78;;;10.38;100.00
19884;BME280;10104;50.732;10.174;2023-10-31T04:47:46;96196.69;;;10.32;100.00
19884;BME280;10104;50.732;10.174;2023-10-31T04:50:27;96202.09;;;10.37;100.00
19884;BME280;10104;50.732;10.174;2023-10-31T04:53:07;96190.47;;;10.38;100.00
19884;BME280;10104;50.732;10.174;2023-10-31T04:55:47;96188.41;;;10.40;100.00
19884;BME280;10104;50.732;10.174;2023-10-31T04:58:27;96193.81;;;10.34;100.00
19884;BME280;10104;50.732;10.174;2023-10-31T05:01:11;96203.59;;;10.33;100.00
19884;BME280;10104;50.732;10.174;2023-10-31T05:03:52;96210.28;;;10.36;100.00
19884;BME280;10104;50.732;10.174;2023-10-31T05:06:49;96207.97;;;10.39;100.00
19884;BME280;10104;50.732;10.174;2023-10-31T05:09:29;96213.25;;;10.39;100.00
19884;BME280;10104;50.732;10.174;2023-10-31T05:12:10;96228.78;;;10.36;100.00
19884;BME280;10104;50.732;10.174;2023-10-31T05:14:50;96224.06;;;10.38;100.00
19884;BME280;10104;50.732;10.174;2023-10-31T05:17:30;96215.69;;;10.41;100.00
19884;BME280;10104;50.732;10.174;2023-10-31T05:20:11;96223.03;;;10.39;100.00
19884;BME280;10104;50.732;10.174;2023-10-31T05:22:51;96225.69;;;10.39;100.00
19884;BME280;10104;50.732;10.174;2023-10-31T05:25:31;96237.53;;;10.36;100.00
19884;BME280;10104;50.732;10.174;2023-10-31T05:28:12;96232.00;;;10.38;100.00
19884;BME280;10104;50.732;10.174;2023-10-31T05:30:52;96228.09;;;10.29;100.00
19884;BME280;10104;50.732;10.174;2023-10-31T05:33:32;96226.34;;;10.23;100.00
19884;BME280;10104;50.732;10.174;2023-10-31T05:36:19;96235.75;;;10.19;100.00
19884;BME280;10104;50.732;10.174;2023-10-31T05:39:00;96246.41;;;10.12;100.00
19884;BME280;10104;50.732;10.174;2023-10-31T05:41:40;96246.84;;;10.09;100.00
19884;BME280;10104;50.732;10.174;2023-10-31T05:44:20;96247.31;;;10.06;100.00
19884;BME280;10104;50.732;10.174;2023-10-31T05:47:00;96237.19;;;10.03;100.00
19884;BME280;10104;50.732;10.174;2023-10-31T05:49:42;96251.88;;;9.99;100.00
19884;BME280;10104;50.732;10.174;2023-10-31T05:52:23;96249.91;;;9.94;100.00
19884;BME280;10104;50.732;10.174;2023-10-31T05:55:08;96257.25;;;9.92;100.00
19884;BME280;10104;50.732;10.174;2023-10-31T05:57:48;96264.53;;;9.97;100.00
19884;BME280;10104;50.732;10.174;2023-10-31T06:00:29;96266.47;;;10.01;100.00
19884;BME280;10104;50.732;10.174;2023-10-31T06:03:09;96264.88;;;10.00;100.00
19884;BME280;10104;50.732;10.174;2023-10-31T06:05:49;96261.41;;;10.00;100.00
19884;BME280;10104;50.732;10.174;2023-10-31T06:08:29;96271.84;;;9.95;100.00
19884;BME280;10104;50.732;10.174;2023-10-31T06:11:09;96273.03;;;9.99;100.00
19884;BME280;10104;50.732;10.174;2023-10-31T06:13:53;96282.56;;;10.00;100.00
19884;BME280;10104;50.732;10.174;2023-10-31T06:16:33;96281.63;;;9.94;100.00
19884;BME280;10104;50.732;10.174;2023-10-31T06:19:13;96272.09;;;9.93;100.00
19884;BME280;10104;50.732;10.174;2023-10-31T06:21:53;96275.78;;;9.92;100.00
19884;BME280;10104;50.732;10.174;2023-10-31T06:24:33;96277.38;;;9.93;100.00
19884;BME280;10104;50.732;10.174;2023-10-31T06:27:13;96285.06;;;9.95;100.00
19884;BME280;10104;50.732;10.174;2023-10-31T06:29:54;96289.47;;;10.01;100.00
19884;BME280;10104;50.732;10.174;2023-10-31T06:32:55;96294.19;;;9.99;100.00
19884;BME280;10104;50.732;10.174;2023-10-31T06:35:35;96282.94;;;10.03;100.00
19884;BME280;10104;50.732;10.174;2023-10-31T06:38:16;96298.50;;;10.11;100.00
19884;BME280;10104;50.732;10.174;2023-10-31T06:40:56;96295.38;;;10.14;100.00
19884;BME280;10104;50.732;10.174;2023-10-31T06:43:37;96300.28;;;10.18;100.00
19884;BME280;10104;50.732;10.174;2023-10-31T06:46:17;96310.03;;;10.17;100.00
19884;BME280;10104;50.732;10.174;2023-10-31T06:48:58;96312.44;;;10.19;100.00
19884;BME280;10104;50.732;10.174;2023-10-31T06:51:38;96311.41;;;10.20;100.00
19884;BME280;10104;50.732;10.174;2023-10-31T06:54:18;96331.34;;;10.22;100.00
19884;BME280;10104;50.732;10.174;2023-10-31T06:56:59;96318.47;;;10.26;100.00
19884;BME280;10104;50.732;10.174;2023-10-31T06:59:41;96320.28;;;10.25;100.00
19884;BME280;10104;50.732;10.174;2023-10-31T07:02:21;96336.75;;;10.27;100.00
19884;BME280;10104;50.732;10.174;2023-10-31T07:05:01;96341.22;;;10.27;100.00
19884;BME280;10104;50.732;10.174;2023-10-31T07:07:43;96331.03;;;10.30;100.00
19884;BME280;10104;50.732;10.174;2023-10-31T07:10:23;96343.19;;;10.31;100.00
19884;BME280;10104;50.732;10.174;2023-10-31T07:13:03;96336.56;;;10.40;100.00
19884;BME280;10104;50.732;10.174;2023-10-31T07:15:43;96349.59;;;10.42;100.00
19884;BME280;10104;50.732;10.174;2023-10-31T07:18:23;96344.72;;;10.39;100.00
19884;BME280;10104;50.732;10.174;2023-10-31T07:21:04;96362.56;;;10.43;100.00
19884;BME280;10104;50.732;10.174;2023-10-31T07:23:44;96364.78;;;10.46;100.00
19884;BME280;10104;50.732;10.174;2023-10-31T07:26:24;96358.59;;;10.52;100.00
19884;BME280;10104;50.732;10.174;2023-10-31T07:29:05;96368.09;;;10.72;100.00
19884;BME280;10104;50.732;10.174;2023-10-31T07:31:45;96377.19;;;10.87;100.00
19884;BME280;10104;50.732;10.174;2023-10-31T07:34:26;96383.91;;;10.90;100.00
19884;BME280;10104;50.732;10.174;2023-10-31T07:37:06;96383.53;;;10.86;100.00
19884;BME280;10104;50.732;10.174;2023-10-31T07:39:46;96377.66;;;10.84;100.00
19884;BME280;10104;50.732;10.174;2023-10-31T07:42:27;96386.31;;;10.91;100.00
19884;BME280;10104;50.732;10.174;2023-10-31T07:45:07;96381.84;;;10.92;100.00
19884;BME280;10104;50.732;10.174;2023-10-31T07:47:47;96385.16;;;10.87;100.00
19884;BME280;10104;50.732;10.174;2023-10-31T07:50:27;96395.09;;;10.92;100.00
19884;BME280;10104;50.732;10.174;2023-10-31T07:53:07;96391.13;;;10.83;100.00
19884;BME280;10104;50.732;10.174;2023-10-31T07:55:48;96392.72;;;10.72;100.00
19884;BME280;10104;50.732;10.174;2023-10-31T07:58:28;96400.78;;;10.77;100.00
19884;BME280;10104;50.732;10.174;2023-10-31T08:01:09;96404.41;;;10.94;100.00
19884;BME280;10104;50.732;10.174;2023-10-31T08:03:52;96394.59;;;10.95;100.00
19884;BME280;10104;50.732;10.174;2023-10-31T08:06:33;96405.81;;;11.09;100.00
19884;BME280;10104;50.732;10.174;2023-10-31T08:09:14;96411.44;;;11.12;100.00
19884;BME280;10104;50.732;10.174;2023-10-31T08:11:56;96405.59;;;11.22;100.00
19884;BME280;10104;50.732;10.174;2023-10-31T08:14:36;96420.38;;;11.41;100.00
19884;BME280;10104;50.732;10.174;2023-10-31T08:17:16;96409.09;;;11.46;100.00
19884;BME280;10104;50.732;10.174;2023-10-31T08:19:57;96410.81;;;11.63;100.00
19884;BME280;10104;50.732;10.174;2023-10-31T08:22:38;96408.28;;;11.57;100.00
19884;BME280;10104;50.732;10.174;2023-10-31T08:25:18;96415.75;;;11.48;100.00
19884;BME280;10104;50.732;10.174;2023-10-31T08:27:58;96408.28;;;11.45;100.00
19884;BME280;10104;50.732;10.174;2023-10-31T08:30:39;96417.25;;;11.32;100.00
19884;BME280;10104;50.732;10.174;2023-10-31T08:33:19;96420.13;;;11.31;100.00
19884;BME280;10104;50.732;10.174;2023-10-31T08:35:59;96418.75;;;11.52;100.00
19884;BME280;10104;50.732;10.174;2023-10-31T08:38:40;96418.66;;;11.47;100.00
19884;BME280;10104;50.732;10.174;2023-10-31T08:41:20;96423.13;;;11.46;100.00
19884;BME280;10104;50.732;10.174;2023-10-31T08:44:01;96430.28;;;11.46;100.00
19884;BME280;10104;50.732;10.174;2023-10-31T08:46:43;96430.28;;;11.34;100.00
19884;BME280;10104;50.732;10.174;2023-10-31T08:49:23;96436.72;;;11.26;100.00
19884;BME280;10104;50.732;10.174;2023-10-31T08:52:03;96447.22;;;11.33;100.00
19884;BME280;10104;50.732;10.174;2023-10-31T08:54:44;96466.28;;;11.23;100.00
19884;BME280;10104;50.732;10.174;2023-10-31T08:57:24;96452.81;;;11.25;100.00
19884;BME280;10104;50.732;10.174;2023-10-31T09:00:05;96468.03;;;11.29;100.00
19884;BME280;10104;50.732;10.174;2023-10-31T09:02:46;96463.91;;;11.33;100.00
19884;BME280;10104;50.732;10.174;2023-10-31T09:05:26;96457.34;;;11.36;100.00
19884;BME280;10104;50.732;10.174;2023-10-31T09:08:07;96454.00;;;11.29;100.00
19884;BME280;10104;50.732;10.174;2023-10-31T09:10:47;96454.66;;;11.24;100.00
19884;BME280;10104;50.732;10.174;2023-10-31T09:13:27;96451.38;;;11.41;100.00
19884;BME280;10104;50.732;10.174;2023-10-31T09:16:07;96460.47;;;11.45;100.00
19884;BME280;10104;50.732;10.174;2023-10-31T09:18:48;96454.72;;;11.59;100.00
19884;BME280;10104;50.732;10.174;2023-10-31T09:21:28;96476.69;;;11.78;100.00
19884;BME280;10104;50.732;10.174;2023-10-31T09:24:08;96474.03;;;11.90;100.00
19884;BME280;10104;50.732;10.174;2023-10-31T09:26:49;96491.88;;;11.83;100.00
19884;BME280;10104;50.732;10.174;2023-10-31T09:29:29;96480.69;;;11.81;100.00
19884;BME280;10104;50.732;10.174;2023-10-31T09:32:09;96500.28;;;11.80;100.00
19884;BME280;10104;50.732;10.174;2023-10-31T09:34:49;96492.00;;;11.88;100.00
19884;BME280;10104;50.732;10.174;2023-10-31T09:37:30;96504.00;;;12.02;100.00
19884;BME280;10104;50.732;10.174;2023-10-31T09:40:10;96509.97;;;11.86;100.00
19884;BME280;10104;50.732;10.174;2023-10-31T09:42:50;96508.94;;;11.98;100.00
19884;BME280;10104;50.732;10.174;2023-10-31T09:45:30;96506.19;;;11.93;100.00
19884;BME280;10104;50.732;10.174;2023-10-31T09:48:11;96511.25;;;11.95;100.00
19884;BME280;10104;50.732;10.174;2023-10-31T09:50:51;96514.94;;;11.82;100.00
19884;BME280;10104;50.732;10.174;2023-10-31T09:53:33;96513.44;;;11.74;100.00
19884;BME280;10104;50.732;10.174;2023-10-31T09:56:17;96506.88;;;11.77;100.00
19884;BME280;10104;50.732;10.174;2023-10-31T09:58:58;96515.94;;;11.58;100.00
19884;BME280;10104;50.732;10.174;2023-10-31T10:01:40;96518.22;;;11.54;100.00
19884;BME280;10104;50.732;10.174;2023-10-31T10:04:21;96517.56;;;11.70;100.00
19884;BME280;10104;50.732;10.174;2023-10-31T10:07:01;96510.63;;;11.69;100.00
19884;BME280;10104;50.732;10.174;2023-10-31T10:09:43;96519.41;;;11.70;100.00
19884;BME280;10104;50.732;10.174;2023-10-31T10:12:24;96522.69;;;11.84;100.00
19884;BME280;10104;50.732;10.174;2023-10-31T10:15:04;96527.75;;;11.97;100.00
19884;BME280;10104;50.732;10.174;2023-10-31T10:17:49;96531.66;;;11.83;100.00
19884;BME280;10104;50.732;10.174;2023-10-31T10:20:30;96529.34;;;11.74;100.00
19884;BME280;10104;50.732;10.174;2023-10-31T10:23:11;96526.31;;;11.71;100.00
19884;BME280;10104;50.732;10.174;2023-10-31T10:25:54;96529.41;;;11.68;100.00
19884;BME280;10104;50.732;10.174;2023-10-31T10:28:35;96529.53;;;11.73;100.00
19884;BME280;10104;50.732;10.174;2023-10-31T10:31:16;96526.59;;;12.04;100.00
19884;BME280;10104;50.732;10.174;2023-10-31T10:33:56;96542.75;;;12.14;100.00
19884;BME280;10104;50.732;10.174;2023-10-31T10:36:36;96535.47;;;11.98;100.00
19884;BME280;10104;50.732;10.174;2023-10-31T10:39:19;96557.25;;;11.77;100.00
19884;BME280;10104;50.732;10.174;2023-10-31T10:42:01;96533.69;;;11.69;100.00
19884;BME280;10104;50.732;10.174;2023-10-31T10:44:48;96541.69;;;11.81;100.00
19884;BME280;10104;50.732;10.174;2023-10-31T10:47:33;96537.66;;;11.78;100.00
19884;BME280;10104;50.732;10.174;2023-10-31T10:50:15;96535.28;;;11.58;100.00
19884;BME280;10104;50.732;10.174;2023-10-31T10:53:22;96551.56;;;11.32;100.00
19884;BME280;10104;50.732;10.174;2023-10-31T10:56:13;96544.84;;;11.18;100.00
19884;BME280;10104;50.732;10.174;2023-10-31T10:59:03;96534.16;;;11.24;100.00
19884;BME280;10104;50.732;10.174;2023-10-31T11:01:46;96550.09;;;11.36;100.00
19884;BME280;10104;50.732;10.174;2023-10-31T11:04:27;96550.00;;;11.54;100.00
19884;BME280;10104;50.732;10.174;2023-10-31T11:07:08;96542.56;;;11.63;100.00
19884;BME280;10104;50.732;10.174;2023-10-31T11:09:49;96550.06;;;11.66;100.00
19884;BME280;10104;50.732;10.174;2023-10-31T11:12:30;96544.59;;;11.91;100.00
19884;BME280;10104;50.732;10.174;2023-10-31T11:15:13;96536.75;;;11.84;100.00
19884;BME280;10104;50.732;10.174;2023-10-31T11:17:55;96545.31;;;11.68;100.00
19884;BME280;10104;50.732;10.174;2023-10-31T11:20:36;96558.69;;;11.73;100.00
19884;BME280;10104;50.732;10.174;2023-10-31T11:23:17;96559.44;;;11.92;100.00
19884;BME280;10104;50.732;10.174;2023-10-31T11:25:57;96565.72;;;12.09;100.00
19884;BME280;10104;50.732;10.174;2023-10-31T11:28:38;96566.06;;;12.01;100.00
19884;BME280;10104;50.732;10.174;2023-10-31T11:31:19;96561.56;;;12.01;100.00
19884;BME280;10104;50.732;10.174;2023-10-31T11:34:02;96568.09;;;11.87;100.00
19884;BME280;10104;50.732;10.174;2023-10-31T11:36:44;96579.22;;;11.66;100.00
19884;BME280;10104;50.732;10.174;2023-10-31T11:39:24;96571.56;;;11.76;100.00
19884;BME280;10104;50.732;10.174;2023-10-31T11:42:17;96586.66;;;11.75;100.00
19884;BME280;10104;50.732;10.174;2023-10-31T11:44:58;96584.81;;;11.76;100.00
19884;BME280;10104;50.732;10.174;2023-10-31T11:47:48;96590.91;;;11.77;100.00
19884;BME280;10104;50.732;10.174;2023-10-31T11:50:29;96586.13;;;11.97;100.00
19884;BME280;10104;50.732;10.174;2023-10-31T11:55:52;96588.44;;;12.16;100.00
19884;BME280;10104;50.732;10.174;2023-10-31T11:58:37;96594.03;;;11.85;100.00
19884;BME280;10104;50.732;10.174;2023-10-31T12:01:17;96609.22;;;11.66;100.00
19884;BME280;10104;50.732;10.174;2023-10-31T12:03:57;96606.69;;;11.42;100.00
19884;BME280;10104;50.732;10.174;2023-10-31T12:06:38;96605.13;;;11.22;100.00
19884;BME280;10104;50.732;10.174;2023-10-31T12:09:18;96611.38;;;11.28;100.00
19884;BME280;10104;50.732;10.174;2023-10-31T12:11:59;96612.47;;;11.20;100.00
19884;BME280;10104;50.732;10.174;2023-10-31T12:14:39;96616.16;;;11.01;100.00
19884;BME280;10104;50.732;10.174;2023-10-31T12:17:20;96617.59;;;11.04;100.00
19884;BME280;10104;50.732;10.174;2023-10-31T12:20:04;96625.34;;;10.99;100.00
19884;BME280;10104;50.732;10.174;2023-10-31T12:22:45;96629.34;;;11.08;100.00
19884;BME280;10104;50.732;10.174;2023-10-31T12:25:27;96623.88;;;11.21;100.00
19884;BME280;10104;50.732;10.174;2023-10-31T12:28:07;96623.00;;;11.27;100.00
19884;BME280;10104;50.732;10.174;2023-10-31T12:30:51;96623.84;;;11.39;100.00
19884;BME280;10104;50.732;10.174;2023-10-31T12:33:35;96624.34;;;11.48;100.00
19884;BME280;10104;50.732;10.174;2023-10-31T12:36:15;96633.59;;;11.57;100.00
19884;BME280;10104;50.732;10.174;2023-10-31T12:38:55;96639.25;;;11.60;100.00
19884;BME280;10104;50.732;10.174;2023-10-31T12:41:36;96646.63;;;11.77;100.00
19884;BME280;10104;50.732;10.174;2023-10-31T12:44:22;96646.16;;;11.80;100.00
19884;BME280;10104;50.732;10.174;2023-10-31T12:47:07;96648.81;;;11.61;100.00
19884;BME280;10104;50.732;10.174;2023-10-31T12:49:47;96654.28;;;11.48;100.00
19884;BME280;10104;50.732;10.174;2023-10-31T12:52:45;96658.53;;;11.38;100.00
19884;BME280;10104;50.732;10.174;2023-10-31T12:55:27;96658.94;;;11.23;100.00
19884;BME280;10104;50.732;10.174;2023-10-31T12:58:08;96655.22;;;11.24;100.00
19884;BME280;10104;50.732;10.174;2023-10-31T13:00:50;96669.28;;;11.24;100.00
19884;BME280;10104;50.732;10.174;2023-10-31T13:03:31;96673.56;;;11.25;100.00
19884;BME280;10104;50.732;10.174;2023-10-31T13:06:15;96669.06;;;11.26;100.00
19884;BME280;10104;50.732;10.174;2023-10-31T13:08:56;96664.94;;;11.30;100.00
19884;BME280;10104;50.732;10.174;2023-10-31T13:11:39;96679.44;;;11.27;100.00
19884;BME280;10104;50.732;10.174;2023-10-31T13:14:20;96677.06;;;11.38;100.00
19884;BME280;10104;50.732;10.174;2023-10-31T13:17:00;96674.06;;;11.34;100.00
19884;BME280;10104;50.732;10.174;2023-10-31T13:19:42;96676.13;;;11.32;100.00
19884;BME280;10104;50.732;10.174;2023-10-31T13:22:22;96687.59;;;11.26;100.00
19884;BME280;10104;50.732;10.174;2023-10-31T13:25:04;96682.25;;;11.14;100.00
19884;BME280;10104;50.732;10.174;2023-10-31T13:27:47;96680.13;;;11.05;100.00
19884;BME280;10104;50.732;10.174;2023-10-31T13:30:31;96692.84;;;10.96;100.00
19884;BME280;10104;50.732;10.174;2023-10-31T13:33:11;96688.78;;;10.93;100.00
19884;BME280;10104;50.732;10.174;2023-10-31T13:35:51;96694.97;;;11.06;100.00
19884;BME280;10104;50.732;10.174;2023-10-31T13:38:31;96689.03;;;11.28;100.00
19884;BME280;10104;50.732;10.174;2023-10-31T13:41:12;96694.59;;;11.39;100.00
19884;BME280;10104;50.732;10.174;2023-10-31T13:43:52;96697.03;;;11.40;100.00
19884;BME280;10104;50.732;10.174;2023-10-31T13:46:32;96696.81;;;11.42;100.00
19884;BME280;10104;50.732;10.174;2023-10-31T13:49:12;96703.28;;;11.46;100.00
19884;BME280;10104;50.732;10.174;2023-10-31T13:51:52;96702.00;;;11.48;100.00
19884;BME280;10104;50.732;10.174;2023-10-31T13:54:33;96705.94;;;11.46;100.00